sensor_id;sensor_type;location;lat;lon;timestamp;P1;durP1;ratioP1;P2;durP2;ratioP2
23474;SDS011;11910;52.086;21.066;2023-05-07T00:02:01;8.85;;;4.97;;
23474;SDS011;11910;52.086;21.066;2023-05-07T00:04:28;6.68;;;4.28;;
23474;SDS011;11910;52.086;21.066;2023-05-07T00:09:26;6.57;;;4.60;;
23474;SDS011;11910;52.086;21.066;2023-05-07T00:11:52;5.93;;;4.90;;
23474;SDS011;11910;52.086;21.066;2023-05-07T00:14:17;6.18;;;4.53;;
23474;SDS011;11910;52.086;21.066;2023-05-07T00:16:43;5.70;;;4.68;;
23474;SDS011;11910;52.086;21.066;2023-05-07T00:19:08;6.72;;;4.78;;
23474;SDS011;11910;52.086;21.066;2023-05-07T00:21:34;8.50;;;4.68;;
23474;SDS011;11910;52.086;21.066;2023-05-07T00:24:00;6.97;;;4.72;;
23474;SDS011;11910;52.086;21.066;2023-05-07T00:26:25;6.35;;;4.50;;
23474;SDS011;11910;52.086;21.066;2023-05-07T00:28:51;6.45;;;4.50;;
23474;SDS011;11910;52.086;21.066;2023-05-07T00:31:16;6.65;;;4.60;;
23474;SDS011;11910;52.086;21.066;2023-05-07T00:33:42;5.43;;;4.70;;
23474;SDS011;11910;52.086;21.066;2023-05-07T00:36:07;5.78;;;4.50;;
23474;SDS011;11910;52.086;21.066;2023-05-07T00:38:33;6.75;;;4.55;;
23474;SDS011;11910;52.086;21.066;2023-05-07T00:40:59;7.03;;;4.68;;
23474;SDS011;11910;52.086;21.066;2023-05-07T00:43:24;6.38;;;4.78;;
23474;SDS011;11910;52.086;21.066;2023-05-07T00:45:50;5.18;;;4.20;;
23474;SDS011;11910;52.086;21.066;2023-05-07T00:48:16;9.35;;;4.85;;
23474;SDS011;11910;52.086;21.066;2023-05-07T00:50:42;6.18;;;4.88;;
23474;SDS011;11910;52.086;21.066;2023-05-07T00:53:08;6.10;;;5.32;;
23474;SDS011;11910;52.086;21.066;2023-05-07T00:55:34;6.53;;;4.75;;
23474;SDS011;11910;52.086;21.066;2023-05-07T00:58:00;5.65;;;4.97;;
23474;SDS011;11910;52.086;21.066;2023-05-07T01:00:26;7.35;;;4.82;;
23474;SDS011;11910;52.086;21.066;2023-05-07T01:02:52;7.43;;;4.72;;
23474;SDS011;11910;52.086;21.066;2023-05-07T01:05:18;7.57;;;5.43;;
23474;SDS011;11910;52.086;21.066;2023-05-07T01:07:45;7.68;;;5.03;;
23474;SDS011;11910;52.086;21.066;2023-05-07T01:10:11;9.57;;;5.20;;
23474;SDS011;11910;52.086;21.066;2023-05-07T01:12:37;7.38;;;5.15;;
23474;SDS011;11910;52.086;21.066;2023-05-07T01:15:05;6.85;;;4.55;;
23474;SDS011;11910;52.086;21.066;2023-05-07T01:17:35;5.88;;;4.93;;
23474;SDS011;11910;52.086;21.066;2023-05-07T01:20:02;6.15;;;4.50;;
23474;SDS011;11910;52.086;21.066;2023-05-07T01:22:33;6.22;;;4.60;;
23474;SDS011;11910;52.086;21.066;2023-05-07T01:25:01;8.00;;;4.50;;
23474;SDS011;11910;52.086;21.066;2023-05-07T01:27:31;7.90;;;4.70;;
23474;SDS011;11910;52.086;21.066;2023-05-07T01:29:58;7.35;;;5.22;;
23474;SDS011;11910;52.086;21.066;2023-05-07T01:32:27;7.68;;;5.15;;
23474;SDS011;11910;52.086;21.066;2023-05-07T01:35:07;5.40;;;4.75;;
23474;SDS011;11910;52.086;21.066;2023-05-07T01:37:37;6.15;;;5.00;;
23474;SDS011;11910;52.086;21.066;2023-05-07T01:40:04;7.68;;;4.80;;
23474;SDS011;11910;52.086;21.066;2023-05-07T01:42:30;7.28;;;4.90;;
23474;SDS011;11910;52.086;21.066;2023-05-07T01:44:56;6.68;;;4.72;;
23474;SDS011;11910;52.086;21.066;2023-05-07T01:47:22;5.00;;;4.50;;
23474;SDS011;11910;52.086;21.066;2023-05-07T01:49:48;6.07;;;4.50;;
23474;SDS011;11910;52.086;21.066;2023-05-07T01:52:14;5.63;;;4.57;;
23474;SDS011;11910;52.086;21.066;2023-05-07T01:54:40;8.30;;;4.28;;
23474;SDS011;11910;52.086;21.066;2023-05-07T01:57:06;5.45;;;4.50;;
23474;SDS011;11910;52.086;21.066;2023-05-07T01:59:32;6.50;;;4.22;;
23474;SDS011;11910;52.086;21.066;2023-05-07T02:01:57;5.32;;;4.30;;
23474;SDS011;11910;52.086;21.066;2023-05-07T02:04:23;7.07;;;4.38;;
23474;SDS011;11910;52.086;21.066;2023-05-07T02:06:49;5.05;;;3.95;;
23474;SDS011;11910;52.086;21.066;2023-05-07T02:09:15;6.10;;;4.22;;
23474;SDS011;11910;52.086;21.066;2023-05-07T02:11:40;5.38;;;4.15;;
23474;SDS011;11910;52.086;21.066;2023-05-07T02:14:06;6.07;;;4.07;;
23474;SDS011;11910;52.086;21.066;2023-05-07T02:16:32;6.57;;;4.78;;
23474;SDS011;11910;52.086;21.066;2023-05-07T02:18:57;5.13;;;3.97;;
23474;SDS011;11910;52.086;21.066;2023-05-07T02:21:23;6.05;;;4.20;;
23474;SDS011;11910;52.086;21.066;2023-05-07T02:23:50;6.07;;;4.28;;
23474;SDS011;11910;52.086;21.066;2023-05-07T02:26:15;6.60;;;4.22;;
23474;SDS011;11910;52.086;21.066;2023-05-07T02:28:41;4.93;;;4.32;;
23474;SDS011;11910;52.086;21.066;2023-05-07T02:31:06;6.10;;;4.10;;
23474;SDS011;11910;52.086;21.066;2023-05-07T02:33:32;4.93;;;3.95;;
23474;SDS011;11910;52.086;21.066;2023-05-07T02:36:08;5.07;;;4.40;;
23474;SDS011;11910;52.086;21.066;2023-05-07T02:38:35;6.03;;;3.88;;
23474;SDS011;11910;52.086;21.066;2023-05-07T02:41:01;5.95;;;4.13;;
23474;SDS011;11910;52.086;21.066;2023-05-07T02:43:26;5.60;;;4.18;;
23474;SDS011;11910;52.086;21.066;2023-05-07T02:48:31;5.90;;;3.85;;
23474;SDS011;11910;52.086;21.066;2023-05-07T02:50:57;5.07;;;4.07;;
23474;SDS011;11910;52.086;21.066;2023-05-07T02:53:23;5.63;;;3.33;;
23474;SDS011;11910;52.086;21.066;2023-05-07T02:55:51;4.10;;;3.70;;
23474;SDS011;11910;52.086;21.066;2023-05-07T02:58:18;6.22;;;4.32;;
23474;SDS011;11910;52.086;21.066;2023-05-07T03:00:43;5.05;;;3.85;;
23474;SDS011;11910;52.086;21.066;2023-05-07T03:03:09;4.25;;;3.83;;
23474;SDS011;11910;52.086;21.066;2023-05-07T03:05:35;4.40;;;3.78;;
23474;SDS011;11910;52.086;21.066;2023-05-07T03:08:01;4.05;;;3.65;;
23474;SDS011;11910;52.086;21.066;2023-05-07T03:10:28;5.53;;;3.70;;
23474;SDS011;11910;52.086;21.066;2023-05-07T03:12:54;4.75;;;3.80;;
23474;SDS011;11910;52.086;21.066;2023-05-07T03:15:20;5.47;;;3.97;;
23474;SDS011;11910;52.086;21.066;2023-05-07T03:17:46;4.55;;;3.67;;
23474;SDS011;11910;52.086;21.066;2023-05-07T03:20:12;6.55;;;4.18;;
23474;SDS011;11910;52.086;21.066;2023-05-07T03:22:38;4.78;;;3.55;;
23474;SDS011;11910;52.086;21.066;2023-05-07T03:25:04;5.90;;;4.10;;
23474;SDS011;11910;52.086;21.066;2023-05-07T03:27:31;5.53;;;3.50;;
23474;SDS011;11910;52.086;21.066;2023-05-07T03:29:56;5.65;;;3.92;;
23474;SDS011;11910;52.086;21.066;2023-05-07T03:32:22;4.20;;;3.30;;
23474;SDS011;11910;52.086;21.066;2023-05-07T03:34:48;4.93;;;3.60;;
23474;SDS011;11910;52.086;21.066;2023-05-07T03:37:13;4.72;;;3.50;;
23474;SDS011;11910;52.086;21.066;2023-05-07T03:39:39;4.82;;;3.30;;
23474;SDS011;11910;52.086;21.066;2023-05-07T03:42:05;6.97;;;3.40;;
23474;SDS011;11910;52.086;21.066;2023-05-07T03:44:30;4.25;;;3.10;;
23474;SDS011;11910;52.086;21.066;2023-05-07T03:46:56;6.18;;;3.40;;
23474;SDS011;11910;52.086;21.066;2023-05-07T03:49:21;5.20;;;3.00;;
23474;SDS011;11910;52.086;21.066;2023-05-07T03:51:47;3.95;;;2.83;;
23474;SDS011;11910;52.086;21.066;2023-05-07T03:54:13;4.53;;;3.40;;
23474;SDS011;11910;52.086;21.066;2023-05-07T03:56:38;5.22;;;3.40;;
23474;SDS011;11910;52.086;21.066;2023-05-07T03:59:04;3.67;;;3.30;;
23474;SDS011;11910;52.086;21.066;2023-05-07T04:01:30;7.78;;;3.63;;
23474;SDS011;11910;52.086;21.066;2023-05-07T04:03:55;4.10;;;3.15;;
23474;SDS011;11910;52.086;21.066;2023-05-07T04:06:21;4.70;;;3.33;;
23474;SDS011;11910;52.086;21.066;2023-05-07T04:08:47;4.78;;;3.55;;
23474;SDS011;11910;52.086;21.066;2023-05-07T04:11:12;4.88;;;3.40;;
23474;SDS011;11910;52.086;21.066;2023-05-07T04:13:38;3.95;;;3.53;;
23474;SDS011;11910;52.086;21.066;2023-05-07T04:16:05;4.10;;;3.17;;
23474;SDS011;11910;52.086;21.066;2023-05-07T04:18:31;3.72;;;3.30;;
23474;SDS011;11910;52.086;21.066;2023-05-07T04:20:57;4.05;;;2.88;;
23474;SDS011;11910;52.086;21.066;2023-05-07T04:23:22;4.65;;;3.00;;
23474;SDS011;11910;52.086;21.066;2023-05-07T04:25:48;4.13;;;2.80;;
23474;SDS011;11910;52.086;21.066;2023-05-07T04:28:13;3.72;;;2.65;;
23474;SDS011;11910;52.086;21.066;2023-05-07T04:30:39;3.72;;;2.70;;
23474;SDS011;11910;52.086;21.066;2023-05-07T04:33:06;4.20;;;3.00;;
23474;SDS011;11910;52.086;21.066;2023-05-07T04:35:32;4.53;;;3.22;;
23474;SDS011;11910;52.086;21.066;2023-05-07T04:37:58;5.60;;;3.05;;
23474;SDS011;11910;52.086;21.066;2023-05-07T04:40:23;3.70;;;3.03;;
23474;SDS011;11910;52.086;21.066;2023-05-07T04:42:49;5.63;;;3.10;;
23474;SDS011;11910;52.086;21.066;2023-05-07T04:45:15;3.33;;;3.00;;
23474;SDS011;11910;52.086;21.066;2023-05-07T04:47:40;3.70;;;2.97;;
23474;SDS011;11910;52.086;21.066;2023-05-07T04:50:06;4.50;;;3.20;;
23474;SDS011;11910;52.086;21.066;2023-05-07T04:52:33;3.92;;;2.95;;
23474;SDS011;11910;52.086;21.066;2023-05-07T04:54:59;6.15;;;2.85;;
23474;SDS011;11910;52.086;21.066;2023-05-07T04:57:25;3.42;;;3.00;;
23474;SDS011;11910;52.086;21.066;2023-05-07T04:59:51;3.70;;;2.90;;
23474;SDS011;11910;52.086;21.066;2023-05-07T05:02:17;5.00;;;3.05;;
23474;SDS011;11910;52.086;21.066;2023-05-07T05:04:43;5.20;;;2.95;;
23474;SDS011;11910;52.086;21.066;2023-05-07T05:07:08;3.38;;;2.67;;
23474;SDS011;11910;52.086;21.066;2023-05-07T05:09:34;3.15;;;2.85;;
23474;SDS011;11910;52.086;21.066;2023-05-07T05:11:59;3.78;;;3.00;;
23474;SDS011;11910;52.086;21.066;2023-05-07T05:14:25;3.75;;;2.95;;
23474;SDS011;11910;52.086;21.066;2023-05-07T05:16:51;3.72;;;3.08;;
23474;SDS011;11910;52.086;21.066;2023-05-07T05:19:16;3.85;;;3.03;;
23474;SDS011;11910;52.086;21.066;2023-05-07T05:21:42;3.90;;;3.10;;
23474;SDS011;11910;52.086;21.066;2023-05-07T05:24:08;3.35;;;3.00;;
23474;SDS011;11910;52.086;21.066;2023-05-07T05:26:34;4.00;;;3.30;;
23474;SDS011;11910;52.086;21.066;2023-05-07T05:28:59;4.10;;;3.33;;
23474;SDS011;11910;52.086;21.066;2023-05-07T05:31:25;4.68;;;3.13;;
23474;SDS011;11910;52.086;21.066;2023-05-07T05:33:51;4.70;;;2.88;;
23474;SDS011;11910;52.086;21.066;2023-05-07T05:36:16;4.90;;;3.60;;
23474;SDS011;11910;52.086;21.066;2023-05-07T05:38:42;4.00;;;3.50;;
23474;SDS011;11910;52.086;21.066;2023-05-07T05:41:09;3.72;;;3.05;;
23474;SDS011;11910;52.086;21.066;2023-05-07T05:43:35;4.20;;;3.63;;
23474;SDS011;11910;52.086;21.066;2023-05-07T05:46:01;4.68;;;3.20;;
23474;SDS011;11910;52.086;21.066;2023-05-07T05:48:28;4.88;;;3.53;;
23474;SDS011;11910;52.086;21.066;2023-05-07T05:50:54;5.32;;;3.92;;
23474;SDS011;11910;52.086;21.066;2023-05-07T05:53:20;4.10;;;3.60;;
23474;SDS011;11910;52.086;21.066;2023-05-07T05:55:45;4.38;;;3.25;;
23474;SDS011;11910;52.086;21.066;2023-05-07T05:58:11;5.45;;;3.53;;
23474;SDS011;11910;52.086;21.066;2023-05-07T06:00:37;4.82;;;3.17;;
23474;SDS011;11910;52.086;21.066;2023-05-07T06:03:03;3.58;;;2.80;;
23474;SDS011;11910;52.086;21.066;2023-05-07T06:05:28;3.42;;;2.80;;
23474;SDS011;11910;52.086;21.066;2023-05-07T06:07:54;4.40;;;2.78;;
23474;SDS011;11910;52.086;21.066;2023-05-07T06:10:21;3.20;;;2.45;;
23474;SDS011;11910;52.086;21.066;2023-05-07T06:12:46;3.65;;;3.08;;
23474;SDS011;11910;52.086;21.066;2023-05-07T06:15:12;4.13;;;3.10;;
23474;SDS011;11910;52.086;21.066;2023-05-07T06:17:37;3.65;;;2.72;;
23474;SDS011;11910;52.086;21.066;2023-05-07T06:20:03;3.20;;;2.60;;
23474;SDS011;11910;52.086;21.066;2023-05-07T06:22:29;4.53;;;2.80;;
23474;SDS011;11910;52.086;21.066;2023-05-07T06:24:55;3.38;;;2.50;;
23474;SDS011;11910;52.086;21.066;2023-05-07T06:27:20;4.30;;;2.80;;
23474;SDS011;11910;52.086;21.066;2023-05-07T06:29:47;4.22;;;2.65;;
23474;SDS011;11910;52.086;21.066;2023-05-07T06:32:13;5.40;;;2.50;;
23474;SDS011;11910;52.086;21.066;2023-05-07T06:34:39;2.88;;;2.35;;
23474;SDS011;11910;52.086;21.066;2023-05-07T06:37:06;3.28;;;2.65;;
23474;SDS011;11910;52.086;21.066;2023-05-07T06:39:31;6.32;;;2.67;;
23474;SDS011;11910;52.086;21.066;2023-05-07T06:41:58;3.22;;;2.30;;
23474;SDS011;11910;52.086;21.066;2023-05-07T06:44:24;4.97;;;2.50;;
23474;SDS011;11910;52.086;21.066;2023-05-07T06:46:50;3.00;;;2.50;;
23474;SDS011;11910;52.086;21.066;2023-05-07T06:49:16;3.65;;;2.42;;
23474;SDS011;11910;52.086;21.066;2023-05-07T06:51:41;3.58;;;2.30;;
23474;SDS011;11910;52.086;21.066;2023-05-07T06:54:07;3.78;;;2.35;;
23474;SDS011;11910;52.086;21.066;2023-05-07T06:56:33;4.47;;;2.63;;
23474;SDS011;11910;52.086;21.066;2023-05-07T06:58:59;2.97;;;2.63;;
23474;SDS011;11910;52.086;21.066;2023-05-07T07:01:25;2.95;;;2.28;;
23474;SDS011;11910;52.086;21.066;2023-05-07T07:03:51;3.72;;;2.40;;
23474;SDS011;11910;52.086;21.066;2023-05-07T07:06:17;4.90;;;2.50;;
23474;SDS011;11910;52.086;21.066;2023-05-07T07:08:43;3.42;;;2.08;;
23474;SDS011;11910;52.086;21.066;2023-05-07T07:11:09;5.55;;;2.50;;
23474;SDS011;11910;52.086;21.066;2023-05-07T07:13:35;3.55;;;2.33;;
23474;SDS011;11910;52.086;21.066;2023-05-07T07:16:01;2.60;;;2.20;;
23474;SDS011;11910;52.086;21.066;2023-05-07T07:18:26;4.85;;;2.70;;
23474;SDS011;11910;52.086;21.066;2023-05-07T07:20:52;4.00;;;2.45;;
23474;SDS011;11910;52.086;21.066;2023-05-07T07:23:18;3.30;;;2.63;;
23474;SDS011;11910;52.086;21.066;2023-05-07T07:25:44;4.50;;;2.38;;
23474;SDS011;11910;52.086;21.066;2023-05-07T07:28:10;3.05;;;2.42;;
23474;SDS011;11910;52.086;21.066;2023-05-07T07:30:36;6.05;;;4.25;;
23474;SDS011;11910;52.086;21.066;2023-05-07T07:33:02;3.20;;;2.42;;
23474;SDS011;11910;52.086;21.066;2023-05-07T07:35:31;3.70;;;2.65;;
23474;SDS011;11910;52.086;21.066;2023-05-07T07:37:58;3.08;;;2.30;;
23474;SDS011;11910;52.086;21.066;2023-05-07T07:40:23;3.75;;;2.65;;
23474;SDS011;11910;52.086;21.066;2023-05-07T07:42:50;5.05;;;2.50;;
23474;SDS011;11910;52.086;21.066;2023-05-07T07:45:19;3.25;;;2.40;;
23474;SDS011;11910;52.086;21.066;2023-05-07T07:47:45;4.47;;;2.40;;
23474;SDS011;11910;52.086;21.066;2023-05-07T07:50:10;4.28;;;2.25;;
23474;SDS011;11910;52.086;21.066;2023-05-07T07:52:36;2.47;;;2.22;;
23474;SDS011;11910;52.086;21.066;2023-05-07T07:55:02;3.13;;;2.22;;
23474;SDS011;11910;52.086;21.066;2023-05-07T07:57:28;3.80;;;2.38;;
23474;SDS011;11910;52.086;21.066;2023-05-07T07:59:54;2.83;;;2.38;;
23474;SDS011;11910;52.086;21.066;2023-05-07T08:02:20;5.15;;;2.67;;
23474;SDS011;11910;52.086;21.066;2023-05-07T08:04:45;4.07;;;2.53;;
23474;SDS011;11910;52.086;21.066;2023-05-07T08:07:11;4.03;;;3.10;;
23474;SDS011;11910;52.086;21.066;2023-05-07T08:09:37;8.65;;;3.10;;
23474;SDS011;11910;52.086;21.066;2023-05-07T08:12:04;4.25;;;2.53;;
23474;SDS011;11910;52.086;21.066;2023-05-07T08:14:30;6.25;;;2.70;;
23474;SDS011;11910;52.086;21.066;2023-05-07T08:16:56;3.75;;;2.80;;
23474;SDS011;11910;52.086;21.066;2023-05-07T08:19:21;3.33;;;2.47;;
23474;SDS011;11910;52.086;21.066;2023-05-07T08:21:47;4.38;;;2.58;;
23474;SDS011;11910;52.086;21.066;2023-05-07T08:24:16;3.58;;;2.40;;
23474;SDS011;11910;52.086;21.066;2023-05-07T08:26:41;4.53;;;2.53;;
23474;SDS011;11910;52.086;21.066;2023-05-07T08:29:08;4.18;;;2.40;;
23474;SDS011;11910;52.086;21.066;2023-05-07T08:31:33;4.07;;;2.33;;
23474;SDS011;11910;52.086;21.066;2023-05-07T08:33:59;3.80;;;2.42;;
23474;SDS011;11910;52.086;21.066;2023-05-07T08:36:25;3.42;;;2.42;;
23474;SDS011;11910;52.086;21.066;2023-05-07T08:38:51;4.38;;;2.30;;
23474;SDS011;11910;52.086;21.066;2023-05-07T08:41:17;3.83;;;2.47;;
23474;SDS011;11910;52.086;21.066;2023-05-07T08:43:44;2.83;;;2.40;;
23474;SDS011;11910;52.086;21.066;2023-05-07T08:46:15;4.07;;;2.80;;
23474;SDS011;11910;52.086;21.066;2023-05-07T08:48:49;4.43;;;2.90;;
23474;SDS011;11910;52.086;21.066;2023-05-07T08:51:17;3.35;;;2.67;;
23474;SDS011;11910;52.086;21.066;2023-05-07T08:53:44;3.63;;;2.60;;
23474;SDS011;11910;52.086;21.066;2023-05-07T08:56:10;3.00;;;2.70;;
23474;SDS011;11910;52.086;21.066;2023-05-07T08:58:36;5.00;;;3.10;;
23474;SDS011;11910;52.086;21.066;2023-05-07T09:01:03;2.85;;;2.50;;
23474;SDS011;11910;52.086;21.066;2023-05-07T09:03:35;5.15;;;2.80;;
23474;SDS011;11910;52.086;21.066;2023-05-07T09:06:02;4.00;;;2.85;;
23474;SDS011;11910;52.086;21.066;2023-05-07T09:08:28;4.55;;;3.28;;
23474;SDS011;11910;52.086;21.066;2023-05-07T09:10:54;4.20;;;3.25;;
23474;SDS011;11910;52.086;21.066;2023-05-07T09:13:19;2.88;;;2.25;;
23474;SDS011;11910;52.086;21.066;2023-05-07T09:15:45;3.25;;;2.40;;
23474;SDS011;11910;52.086;21.066;2023-05-07T09:18:11;5.70;;;2.35;;
23474;SDS011;11910;52.086;21.066;2023-05-07T09:20:38;4.03;;;2.28;;
23474;SDS011;11910;52.086;21.066;2023-05-07T09:23:05;3.58;;;2.38;;
23474;SDS011;11910;52.086;21.066;2023-05-07T09:25:35;3.38;;;2.50;;
23474;SDS011;11910;52.086;21.066;2023-05-07T09:28:02;3.47;;;2.50;;
23474;SDS011;11910;52.086;21.066;2023-05-07T09:30:30;3.03;;;2.50;;
23474;SDS011;11910;52.086;21.066;2023-05-07T09:32:57;5.00;;;2.35;;
23474;SDS011;11910;52.086;21.066;2023-05-07T09:35:24;3.45;;;2.38;;
23474;SDS011;11910;52.086;21.066;2023-05-07T09:37:55;3.75;;;2.30;;
23474;SDS011;11910;52.086;21.066;2023-05-07T09:40:29;5.82;;;2.28;;
23474;SDS011;11910;52.086;21.066;2023-05-07T09:42:56;3.70;;;2.20;;
23474;SDS011;11910;52.086;21.066;2023-05-07T09:45:24;6.97;;;2.60;;
23474;SDS011;11910;52.086;21.066;2023-05-07T09:47:51;3.72;;;2.40;;
23474;SDS011;11910;52.086;21.066;2023-05-07T09:50:20;3.97;;;2.30;;
23474;SDS011;11910;52.086;21.066;2023-05-07T09:52:57;4.00;;;2.88;;
23474;SDS011;11910;52.086;21.066;2023-05-07T09:55:23;4.80;;;3.30;;
23474;SDS011;11910;52.086;21.066;2023-05-07T09:57:50;5.20;;;3.10;;
23474;SDS011;11910;52.086;21.066;2023-05-07T10:00:18;3.65;;;2.63;;
23474;SDS011;11910;52.086;21.066;2023-05-07T10:02:45;3.53;;;2.47;;
23474;SDS011;11910;52.086;21.066;2023-05-07T10:05:14;6.78;;;2.95;;
23474;SDS011;11910;52.086;21.066;2023-05-07T10:07:40;2.67;;;2.25;;
23474;SDS011;11910;52.086;21.066;2023-05-07T10:10:06;8.70;;;2.70;;
23474;SDS011;11910;52.086;21.066;2023-05-07T10:12:32;6.43;;;2.53;;
23474;SDS011;11910;52.086;21.066;2023-05-07T10:15:05;4.63;;;2.40;;
23474;SDS011;11910;52.086;21.066;2023-05-07T10:17:33;3.63;;;2.00;;
23474;SDS011;11910;52.086;21.066;2023-05-07T10:20:00;4.05;;;1.95;;
23474;SDS011;11910;52.086;21.066;2023-05-07T10:22:26;4.70;;;2.20;;
23474;SDS011;11910;52.086;21.066;2023-05-07T10:24:53;3.88;;;2.00;;
23474;SDS011;11910;52.086;21.066;2023-05-07T10:27:20;4.53;;;2.38;;
23474;SDS011;11910;52.086;21.066;2023-05-07T10:32:53;3.65;;;2.45;;
23474;SDS011;11910;52.086;21.066;2023-05-07T10:35:24;3.78;;;2.20;;
23474;SDS011;11910;52.086;21.066;2023-05-07T10:37:52;6.28;;;2.55;;
23474;SDS011;11910;52.086;21.066;2023-05-07T10:40:19;4.45;;;2.28;;
23474;SDS011;11910;52.086;21.066;2023-05-07T10:43:01;6.32;;;2.40;;
23474;SDS011;11910;52.086;21.066;2023-05-07T10:45:31;5.13;;;2.60;;
23474;SDS011;11910;52.086;21.066;2023-05-07T10:50:33;2.97;;;2.40;;
23474;SDS011;11910;52.086;21.066;2023-05-07T10:55:50;2.72;;;2.30;;
23474;SDS011;11910;52.086;21.066;2023-05-07T10:58:36;4.63;;;2.13;;
23474;SDS011;11910;52.086;21.066;2023-05-07T11:01:02;4.03;;;2.20;;
23474;SDS011;11910;52.086;21.066;2023-05-07T11:03:29;3.83;;;2.22;;
23474;SDS011;11910;52.086;21.066;2023-05-07T11:06:11;2.83;;;2.50;;
23474;SDS011;11910;52.086;21.066;2023-05-07T11:17:07;3.83;;;2.42;;
23474;SDS011;11910;52.086;21.066;2023-05-07T11:19:47;5.15;;;2.72;;
23474;SDS011;11910;52.086;21.066;2023-05-07T11:25:09;4.07;;;2.58;;
23474;SDS011;11910;52.086;21.066;2023-05-07T11:27:35;3.65;;;2.20;;
23474;SDS011;11910;52.086;21.066;2023-05-07T11:30:01;6.32;;;2.58;;
23474;SDS011;11910;52.086;21.066;2023-05-07T11:32:31;5.43;;;2.50;;
23474;SDS011;11910;52.086;21.066;2023-05-07T11:34:57;5.35;;;2.38;;
23474;SDS011;11910;52.086;21.066;2023-05-07T11:37:25;4.03;;;2.20;;
23474;SDS011;11910;52.086;21.066;2023-05-07T11:40:05;6.22;;;2.40;;
23474;SDS011;11910;52.086;21.066;2023-05-07T11:42:33;3.40;;;2.45;;
23474;SDS011;11910;52.086;21.066;2023-05-07T11:45:00;3.92;;;2.50;;
23474;SDS011;11910;52.086;21.066;2023-05-07T11:47:26;5.10;;;2.30;;
23474;SDS011;11910;52.086;21.066;2023-05-07T11:49:55;2.60;;;2.00;;
23474;SDS011;11910;52.086;21.066;2023-05-07T11:52:21;3.45;;;2.35;;
23474;SDS011;11910;52.086;21.066;2023-05-07T11:54:52;6.75;;;2.53;;
23474;SDS011;11910;52.086;21.066;2023-05-07T11:57:19;5.53;;;2.40;;
23474;SDS011;11910;52.086;21.066;2023-05-07T11:59:46;6.75;;;2.80;;
23474;SDS011;11910;52.086;21.066;2023-05-07T12:02:13;3.80;;;2.80;;
23474;SDS011;11910;52.086;21.066;2023-05-07T12:04:40;5.07;;;2.80;;
23474;SDS011;11910;52.086;21.066;2023-05-07T12:07:15;4.07;;;2.50;;
23474;SDS011;11910;52.086;21.066;2023-05-07T12:09:41;3.10;;;2.60;;
23474;SDS011;11910;52.086;21.066;2023-05-07T12:12:07;4.07;;;2.20;;
23474;SDS011;11910;52.086;21.066;2023-05-07T12:14:37;5.10;;;2.42;;
23474;SDS011;11910;52.086;21.066;2023-05-07T12:17:07;5.60;;;2.67;;
23474;SDS011;11910;52.086;21.066;2023-05-07T12:19:34;4.47;;;2.30;;
23474;SDS011;11910;52.086;21.066;2023-05-07T12:22:01;6.20;;;2.50;;
23474;SDS011;11910;52.086;21.066;2023-05-07T12:24:27;2.85;;;2.33;;
23474;SDS011;11910;52.086;21.066;2023-05-07T12:26:53;9.60;;;3.35;;
23474;SDS011;11910;52.086;21.066;2023-05-07T12:29:22;5.47;;;2.45;;
23474;SDS011;11910;52.086;21.066;2023-05-07T12:31:48;5.80;;;2.30;;
23474;SDS011;11910;52.086;21.066;2023-05-07T12:34:15;5.55;;;2.70;;
23474;SDS011;11910;52.086;21.066;2023-05-07T12:36:40;2.40;;;1.95;;
23474;SDS011;11910;52.086;21.066;2023-05-07T12:39:06;6.55;;;2.60;;
23474;SDS011;11910;52.086;21.066;2023-05-07T12:41:51;2.78;;;2.20;;
23474;SDS011;11910;52.086;21.066;2023-05-07T12:44:25;3.97;;;2.22;;
23474;SDS011;11910;52.086;21.066;2023-05-07T12:46:54;3.75;;;2.33;;
23474;SDS011;11910;52.086;21.066;2023-05-07T12:49:19;3.95;;;2.20;;
23474;SDS011;11910;52.086;21.066;2023-05-07T12:51:46;4.00;;;2.38;;
23474;SDS011;11910;52.086;21.066;2023-05-07T12:54:13;3.42;;;2.08;;
23474;SDS011;11910;52.086;21.066;2023-05-07T12:56:59;3.53;;;2.00;;
23474;SDS011;11910;52.086;21.066;2023-05-07T12:59:35;3.53;;;2.22;;
23474;SDS011;11910;52.086;21.066;2023-05-07T13:02:03;3.85;;;2.30;;
23474;SDS011;11910;52.086;21.066;2023-05-07T13:04:29;2.70;;;2.00;;
23474;SDS011;11910;52.086;21.066;2023-05-07T13:06:54;3.05;;;1.90;;
23474;SDS011;11910;52.086;21.066;2023-05-07T13:09:20;2.92;;;1.90;;
23474;SDS011;11910;52.086;21.066;2023-05-07T13:11:46;2.95;;;2.03;;
23474;SDS011;11910;52.086;21.066;2023-05-07T13:14:11;2.20;;;1.80;;
23474;SDS011;11910;52.086;21.066;2023-05-07T13:16:37;3.92;;;2.10;;
23474;SDS011;11910;52.086;21.066;2023-05-07T13:19:03;4.75;;;2.00;;
23474;SDS011;11910;52.086;21.066;2023-05-07T13:21:29;6.40;;;2.10;;
23474;SDS011;11910;52.086;21.066;2023-05-07T13:23:58;2.25;;;2.00;;
23474;SDS011;11910;52.086;21.066;2023-05-07T13:26:24;3.03;;;2.03;;
23474;SDS011;11910;52.086;21.066;2023-05-07T13:28:50;2.38;;;1.85;;
23474;SDS011;11910;52.086;21.066;2023-05-07T13:31:17;3.78;;;1.90;;
23474;SDS011;11910;52.086;21.066;2023-05-07T13:33:43;3.22;;;2.03;;
23474;SDS011;11910;52.086;21.066;2023-05-07T13:36:08;3.28;;;1.98;;
23474;SDS011;11910;52.086;21.066;2023-05-07T13:38:34;4.55;;;2.20;;
23474;SDS011;11910;52.086;21.066;2023-05-07T13:41:00;3.05;;;2.30;;
23474;SDS011;11910;52.086;21.066;2023-05-07T13:43:25;3.50;;;2.00;;
23474;SDS011;11910;52.086;21.066;2023-05-07T13:45:51;3.53;;;2.08;;
23474;SDS011;11910;52.086;21.066;2023-05-07T13:48:16;3.63;;;1.90;;
23474;SDS011;11910;52.086;21.066;2023-05-07T13:50:42;4.03;;;2.08;;
23474;SDS011;11910;52.086;21.066;2023-05-07T13:53:08;7.57;;;2.00;;
23474;SDS011;11910;52.086;21.066;2023-05-07T13:55:33;4.25;;;1.70;;
23474;SDS011;11910;52.086;21.066;2023-05-07T13:58:00;7.00;;;1.60;;
23474;SDS011;11910;52.086;21.066;2023-05-07T14:00:27;2.28;;;1.80;;
23474;SDS011;11910;52.086;21.066;2023-05-07T14:02:54;2.63;;;1.70;;
23474;SDS011;11910;52.086;21.066;2023-05-07T14:05:20;3.08;;;1.63;;
23474;SDS011;11910;52.086;21.066;2023-05-07T14:07:48;2.58;;;1.80;;
23474;SDS011;11910;52.086;21.066;2023-05-07T14:10:16;1.88;;;1.70;;
23474;SDS011;11910;52.086;21.066;2023-05-07T14:12:43;3.08;;;1.70;;
23474;SDS011;11910;52.086;21.066;2023-05-07T14:15:10;2.42;;;1.85;;
23474;SDS011;11910;52.086;21.066;2023-05-07T14:17:36;4.22;;;1.98;;
23474;SDS011;11910;52.086;21.066;2023-05-07T14:20:02;2.65;;;1.70;;
23474;SDS011;11910;52.086;21.066;2023-05-07T14:22:28;1.90;;;1.55;;
23474;SDS011;11910;52.086;21.066;2023-05-07T14:24:54;3.15;;;1.58;;
23474;SDS011;11910;52.086;21.066;2023-05-07T14:27:20;3.03;;;1.85;;
23474;SDS011;11910;52.086;21.066;2023-05-07T14:29:45;2.53;;;1.60;;
23474;SDS011;11910;52.086;21.066;2023-05-07T14:32:15;2.05;;;1.50;;
23474;SDS011;11910;52.086;21.066;2023-05-07T14:34:44;1.67;;;1.50;;
23474;SDS011;11910;52.086;21.066;2023-05-07T14:37:10;6.38;;;2.38;;
23474;SDS011;11910;52.086;21.066;2023-05-07T14:39:36;1.98;;;1.40;;
23474;SDS011;11910;52.086;21.066;2023-05-07T14:42:01;1.77;;;1.40;;
23474;SDS011;11910;52.086;21.066;2023-05-07T14:44:27;2.60;;;1.48;;
23474;SDS011;11910;52.086;21.066;2023-05-07T14:46:53;1.63;;;1.40;;
23474;SDS011;11910;52.086;21.066;2023-05-07T14:49:19;4.25;;;1.60;;
23474;SDS011;11910;52.086;21.066;2023-05-07T14:51:45;2.40;;;1.50;;
23474;SDS011;11910;52.086;21.066;2023-05-07T14:54:12;2.03;;;1.40;;
23474;SDS011;11910;52.086;21.066;2023-05-07T14:56:38;2.78;;;1.52;;